Time;durP1;ratioP1;P1;durP2;ratioP2;P2;SDS_P1;SDS_P2;PMS_P1;PMS_P2;Temp;Humidity;BMP_temperature;BMP_pressure;BME280_temperature;BME280_humidity;BME280_pressure;Samples;Min_cycle;Max_cycle;Signal;HPM_P1;HPM_P2
2023/08/12 00:00:49;;;;;;;6.30;5.70;;;22.50;99.90;;;;;;5093421;28;20194;-71
2023/08/12 00:03:15;;;;;;;6.33;5.13;;;22.50;99.90;;;;;;5076460;28;20634;-70
2023/08/12 00:05:42;;;;;;;7.03;5.70;;;22.50;99.90;;;;;;5094098;28;20392;-71
2023/08/12 00:08:08;;;;;;;5.43;4.93;;;22.50;99.90;;;;;;5094273;28;20169;-71
2023/08/12 00:10:34;;;;;;;8.50;6.20;;;22.50;99.90;;;;;;5094265;28;20817;-70
2023/08/12 00:12:59;;;;;;;8.33;5.13;;;22.50;99.90;;;;;;5094301;28;20188;-71
2023/08/12 00:15:25;;;;;;;7.67;5.90;;;22.50;99.90;;;;;;5093972;28;20176;-70
2023/08/12 00:17:50;;;;;;;5.20;4.33;;;22.50;99.90;;;;;;5092523;28;20646;-70
2023/08/12 00:20:16;;;;;;;6.40;5.80;;;22.50;99.90;;;;;;5099911;28;20204;-71
2023/08/12 00:22:42;;;;;;;7.53;6.10;;;22.50;99.90;;;;;;5094124;28;20631;-70
2023/08/12 00:25:07;;;;;;;5.67;5.03;;;22.50;99.90;;;;;;5093759;28;20181;-71
2023/08/12 00:27:33;;;;;;;13.40;6.83;;;22.50;99.90;;;;;;5094010;28;20169;-71
2023/08/12 00:29:59;;;;;;;6.60;5.03;;;22.50;99.90;;;;;;5093787;28;20193;-71
2023/08/12 00:32:24;;;;;;;5.70;5.10;;;22.40;99.90;;;;;;5093692;28;20185;-71
2023/08/12 00:34:50;;;;;;;6.27;5.20;;;22.40;99.90;;;;;;5087669;28;20177;-71
2023/08/12 00:37:16;;;;;;;6.60;6.00;;;22.40;99.90;;;;;;5080955;28;20162;-71
2023/08/12 00:39:41;;;;;;;9.07;6.20;;;22.20;99.90;;;;;;5093584;28;20530;-71
2023/08/12 00:42:07;;;;;;;16.33;8.50;;;22.20;99.90;;;;;;5093552;28;20431;-70
2023/08/12 00:44:32;;;;;;;11.70;8.10;;;22.10;99.90;;;;;;5093653;28;20210;-71
2023/08/12 00:46:58;;;;;;;8.57;6.67;;;22.10;99.90;;;;;;5093273;28;20204;-71
2023/08/12 00:49:24;;;;;;;6.40;5.63;;;22.10;99.90;;;;;;5091631;28;20193;-71
2023/08/12 00:51:52;;;;;;;10.60;8.67;;;22.10;99.90;;;;;;5090498;28;20718;-71
2023/08/12 00:54:18;;;;;;;8.97;7.60;;;22.10;99.90;;;;;;5099423;28;20903;-71
2023/08/12 00:56:45;;;;;;;9.57;8.57;;;22.00;99.90;;;;;;5113578;28;20455;-71
2023/08/12 00:59:12;;;;;;;9.97;8.73;;;21.90;99.90;;;;;;5113794;28;20403;-70
2023/08/12 01:01:43;;;;;;;11.77;9.53;;;21.90;99.90;;;;;;5113521;28;20426;-71
2023/08/12 01:04:09;;;;;;;11.73;8.97;;;21.80;99.90;;;;;;5108096;28;20430;-71
2023/08/12 01:06:35;;;;;;;10.13;8.40;;;21.80;99.90;;;;;;5090661;28;20443;-71
2023/08/12 01:09:01;;;;;;;13.97;11.67;;;21.90;99.90;;;;;;5084164;28;20201;-71
2023/08/12 01:11:33;;;;;;;18.30;12.60;;;21.80;99.90;;;;;;5100319;28;20199;-71
2023/08/12 01:14:17;;;;;;;13.03;8.50;;;21.70;99.90;;;;;;5113475;28;20402;-71
2023/08/12 01:16:49;;;;;;;14.53;9.90;;;21.80;99.90;;;;;;5113154;28;20398;-71
2023/08/12 01:19:39;;;;;;;13.13;10.63;;;21.80;99.90;;;;;;5107570;28;20403;-71
2023/08/12 01:22:08;;;;;;;11.80;9.67;;;21.70;99.90;;;;;;5080000;28;20804;-71
2023/08/12 01:24:41;;;;;;;20.03;12.70;;;21.80;99.90;;;;;;5092823;28;20407;-71
2023/08/12 01:27:09;;;;;;;15.83;11.13;;;21.60;99.90;;;;;;5092618;28;20436;-71
2023/08/12 01:29:37;;;;;;;13.80;11.27;;;21.60;99.90;;;;;;5089141;28;20548;-71
2023/08/12 01:32:09;;;;;;;12.90;11.30;;;21.60;99.90;;;;;;5096619;28;20452;-71
2023/08/12 01:34:49;;;;;;;14.27;11.60;;;21.60;99.90;;;;;;5113100;28;20402;-71
2023/08/12 01:37:23;;;;;;;14.13;11.13;;;21.50;99.90;;;;;;5094585;28;20420;-71
2023/08/12 01:39:49;;;;;;;21.17;15.07;;;21.60;99.90;;;;;;5094695;28;20415;-71
2023/08/12 01:42:17;;;;;;;14.77;11.13;;;21.60;99.90;;;;;;5113030;28;20426;-71
2023/08/12 01:44:43;;;;;;;13.53;10.53;;;21.60;99.90;;;;;;5084522;28;20439;-71
2023/08/12 01:47:09;;;;;;;13.57;12.17;;;21.60;99.90;;;;;;5087305;28;20441;-72
2023/08/12 01:49:34;;;;;;;23.87;12.27;;;21.60;99.90;;;;;;5112742;28;20189;-71
2023/08/12 01:52:00;;;;;;;16.40;12.93;;;21.50;99.90;;;;;;5112806;28;20460;-71
2023/08/12 01:54:26;;;;;;;14.43;12.33;;;21.50;99.90;;;;;;5112740;28;20197;-71
2023/08/12 01:56:51;;;;;;;13.10;11.63;;;21.40;99.90;;;;;;5112524;28;20175;-71
2023/08/12 01:59:17;;;;;;;18.20;13.17;;;21.50;99.90;;;;;;5102198;28;20567;-71
2023/08/12 02:01:42;;;;;;;17.80;12.73;;;21.50;99.90;;;;;;5090693;28;20197;-71
2023/08/12 02:04:08;;;;;;;13.03;11.37;;;21.40;99.90;;;;;;5112327;28;20616;-71
2023/08/12 02:06:33;;;;;;;12.97;11.60;;;21.40;99.90;;;;;;5112138;28;20188;-71
2023/08/12 02:08:59;;;;;;;21.47;13.47;;;21.50;99.90;;;;;;5094896;28;20205;-71
2023/08/12 02:11:24;;;;;;;11.33;9.93;;;21.40;99.90;;;;;;5073929;28;20192;-71
2023/08/12 02:13:50;;;;;;;16.57;12.43;;;21.40;99.90;;;;;;5092133;28;20174;-71
2023/08/12 02:16:15;;;;;;;16.97;12.80;;;21.40;99.90;;;;;;5089373;28;20177;-71
2023/08/12 02:18:41;;;;;;;13.33;10.60;;;21.40;99.90;;;;;;5092932;28;20173;-71
2023/08/12 02:21:06;;;;;;;14.10;11.53;;;21.40;99.90;;;;;;5112309;28;20203;-72
2023/08/12 02:23:32;;;;;;;18.23;12.93;;;21.40;99.90;;;;;;5112228;28;20177;-71
2023/08/12 02:25:57;;;;;;;21.00;13.43;;;21.40;99.90;;;;;;5099570;28;20642;-71
2023/08/12 02:28:23;;;;;;;16.47;11.93;;;21.30;99.90;;;;;;5091804;28;20231;-72
2023/08/12 02:30:48;;;;;;;21.30;12.90;;;21.40;99.90;;;;;;5110596;28;20230;-71
2023/08/12 02:33:14;;;;;;;12.40;10.80;;;21.40;99.90;;;;;;5112227;28;20176;-72
2023/08/12 02:35:39;;;;;;;18.00;12.83;;;21.50;99.90;;;;;;5087974;28;20185;-71
2023/08/12 02:38:05;;;;;;;19.60;15.50;;;21.50;99.90;;;;;;5104634;28;20580;-71
2023/08/12 02:40:30;;;;;;;19.90;15.10;;;21.50;99.90;;;;;;5112143;28;20705;-71
2023/08/12 02:42:56;;;;;;;14.87;10.57;;;21.50;99.90;;;;;;5112247;28;20679;-72
2023/08/12 02:45:21;;;;;;;14.93;12.13;;;21.50;99.90;;;;;;5111901;28;20244;-71
2023/08/12 02:47:47;;;;;;;18.00;13.53;;;21.60;99.90;;;;;;5112151;28;20193;-71
2023/08/12 02:50:13;;;;;;;17.33;12.63;;;21.60;99.90;;;;;;5090599;28;20206;-71
2023/08/12 02:52:38;;;;;;;21.30;14.00;;;21.60;99.90;;;;;;5109227;28;20172;-72
2023/08/12 02:55:04;;;;;;;16.37;13.57;;;21.60;99.90;;;;;;5111986;28;20684;-72
2023/08/12 02:57:29;;;;;;;15.30;13.40;;;21.60;99.90;;;;;;5112119;28;20173;-71
2023/08/12 02:59:55;;;;;;;14.93;12.50;;;21.60;99.90;;;;;;5112018;28;20161;-71
2023/08/12 03:02:20;;;;;;;15.80;12.97;;;21.70;99.90;;;;;;5111984;28;20668;-71
2023/08/12 03:04:46;;;;;;;14.57;11.50;;;21.60;99.90;;;;;;5099821;28;20170;-72
2023/08/12 03:07:11;;;;;;;20.67;16.27;;;21.60;99.90;;;;;;5089962;28;20186;-72
2023/08/12 03:09:37;;;;;;;17.73;14.10;;;21.70;99.90;;;;;;5090689;28;20200;-71
2023/08/12 03:12:03;;;;;;;16.07;13.80;;;21.70;99.90;;;;;;5113984;28;20184;-71
2023/08/12 03:14:30;;;;;;;15.60;13.10;;;21.70;99.90;;;;;;5115774;28;20214;-72
2023/08/12 03:16:55;;;;;;;21.30;14.77;;;21.60;99.90;;;;;;5097248;28;20437;-71
2023/08/12 03:19:21;;;;;;;18.20;14.40;;;21.60;99.90;;;;;;5115603;28;20438;-71
2023/08/12 03:21:46;;;;;;;19.73;16.50;;;21.50;99.90;;;;;;5082603;28;20197;-71
2023/08/12 03:24:12;;;;;;;19.67;14.93;;;21.50;99.90;;;;;;5109100;28;20175;-72
2023/08/12 03:26:37;;;;;;;15.70;12.93;;;21.50;99.90;;;;;;5115347;28;20169;-73
2023/08/12 03:29:03;;;;;;;16.37;12.20;;;21.40;99.90;;;;;;5115460;28;20177;-72
2023/08/12 03:31:28;;;;;;;19.10;15.30;;;21.30;99.90;;;;;;5087093;28;20734;-72
2023/08/12 03:33:54;;;;;;;17.57;14.67;;;21.20;99.90;;;;;;5083056;28;20547;-71
2023/08/12 03:36:19;;;;;;;22.30;15.07;;;21.10;99.90;;;;;;5088804;28;20177;-71
2023/08/12 03:38:45;;;;;;;16.20;13.10;;;21.10;99.90;;;;;;5113331;28;20183;-72
2023/08/12 03:41:11;;;;;;;21.13;14.63;;;21.10;99.90;;;;;;5115197;28;20662;-72
2023/08/12 03:43:37;;;;;;;15.93;11.70;;;21.00;99.90;;;;;;5115170;28;20165;-72
2023/08/12 03:46:03;;;;;;;15.97;13.03;;;21.10;99.90;;;;;;5104594;28;20423;-72
2023/08/12 03:48:28;;;;;;;17.57;13.00;;;21.10;99.90;;;;;;5102356;28;20413;-72
2023/08/12 03:50:54;;;;;;;21.07;15.83;;;21.00;99.90;;;;;;5096729;28;20253;-72
2023/08/12 03:53:19;;;;;;;16.83;14.17;;;21.00;99.90;;;;;;5069934;28;20182;-72
2023/08/12 03:55:45;;;;;;;19.83;15.47;;;21.00;99.90;;;;;;5093902;28;20181;-72
2023/08/12 03:58:10;;;;;;;17.17;14.17;;;20.90;99.90;;;;;;5114950;28;20160;-72
2023/08/12 04:00:41;;;;;;;17.37;14.07;;;20.90;99.90;;;;;;5114884;28;20189;-72
2023/08/12 04:03:07;;;;;;;22.73;14.37;;;20.80;99.90;;;;;;5081888;28;20657;-72
2023/08/12 04:05:32;;;;;;;18.63;14.10;;;20.70;99.90;;;;;;5097755;28;20416;-72
2023/08/12 04:07:58;;;;;;;23.60;15.10;;;20.80;99.90;;;;;;5094255;28;20177;-72
2023/08/12 04:10:24;;;;;;;22.63;14.03;;;20.70;99.90;;;;;;5094276;28;20284;-72
2023/08/12 04:12:50;;;;;;;18.33;16.43;;;20.70;99.90;;;;;;5094143;28;20166;-72
2023/08/12 04:15:15;;;;;;;19.00;15.07;;;20.70;99.90;;;;;;5075952;28;20991;-71
2023/08/12 04:17:41;;;;;;;20.67;15.37;;;20.60;99.90;;;;;;5094241;28;20164;-72
2023/08/12 04:20:07;;;;;;;13.90;12.50;;;20.60;99.90;;;;;;5085918;28;20170;-72
2023/08/12 04:22:34;;;;;;;18.50;13.37;;;20.60;99.90;;;;;;5075420;28;20190;-72
2023/08/12 04:24:59;;;;;;;18.70;14.50;;;20.70;99.90;;;;;;5073397;28;20629;-71
2023/08/12 04:27:25;;;;;;;19.50;14.70;;;20.70;99.90;;;;;;5073724;28;20415;-72
2023/08/12 04:29:50;;;;;;;21.70;17.43;;;20.70;99.90;;;;;;5073638;28;20190;-72
2023/08/12 04:32:16;;;;;;;28.17;15.07;;;20.70;99.90;;;;;;5073576;28;20190;-72
2023/08/12 04:34:41;;;;;;;23.03;15.80;;;20.80;99.90;;;;;;5074176;28;20190;-71
2023/08/12 04:37:07;;;;;;;24.40;20.43;;;20.90;99.90;;;;;;5093526;28;20240;-72
2023/08/12 04:39:32;;;;;;;27.93;20.70;;;20.80;99.90;;;;;;5110383;28;20538;-71
2023/08/12 04:41:58;;;;;;;22.87;18.40;;;20.90;99.90;;;;;;5114035;28;20187;-72
2023/08/12 04:44:23;;;;;;;23.23;18.10;;;20.90;99.90;;;;;;5114125;28;20168;-72
2023/08/12 04:46:50;;;;;;;18.67;14.83;;;20.90;99.90;;;;;;5113744;28;20180;-70
2023/08/12 04:49:15;;;;;;;15.67;14.07;;;21.00;99.90;;;;;;5095799;28;20628;-72
2023/08/12 04:51:41;;;;;;;18.10;13.07;;;21.00;99.90;;;;;;5107021;28;20533;-72
2023/08/12 04:54:07;;;;;;;17.37;13.70;;;21.10;99.90;;;;;;5105317;28;20247;-72
2023/08/12 04:56:33;;;;;;;19.90;14.20;;;21.20;99.90;;;;;;5095376;28;20431;-71
2023/08/12 04:58:59;;;;;;;18.60;12.90;;;21.20;99.90;;;;;;5113807;28;20822;-71
2023/08/12 05:01:24;;;;;;;18.10;12.87;;;21.30;99.90;;;;;;5113705;28;20220;-71
2023/08/12 05:03:50;;;;;;;12.60;10.53;;;21.40;99.90;;;;;;5113673;28;20691;-71
2023/08/12 05:06:15;;;;;;;16.70;12.60;;;21.60;99.90;;;;;;5113260;28;20268;-71
2023/08/12 05:08:41;;;;;;;18.40;15.30;;;21.70;99.90;;;;;;5098221;28;20197;-71
2023/08/12 05:11:07;;;;;;;18.37;14.70;;;21.60;99.90;;;;;;5093265;28;20565;-72
2023/08/12 05:13:32;;;;;;;18.97;14.80;;;21.60;99.90;;;;;;5093336;28;20158;-71
2023/08/12 05:15:58;;;;;;;17.10;13.67;;;21.50;99.90;;;;;;5092763;28;20162;-70
2023/08/12 05:18:23;;;;;;;21.00;14.07;;;21.60;99.90;;;;;;5074934;28;20181;-71
2023/08/12 05:20:51;;;;;;;16.33;13.60;;;21.50;99.90;;;;;;5092961;28;20200;-71
2023/08/12 05:23:16;;;;;;;17.53;14.20;;;21.60;99.90;;;;;;5092987;28;20165;-71
2023/08/12 05:25:42;;;;;;;18.27;13.93;;;21.60;99.90;;;;;;5087711;28;20454;-71
2023/08/12 05:28:07;;;;;;;15.30;13.13;;;21.70;99.90;;;;;;5106100;28;20173;-71
2023/08/12 05:30:34;;;;;;;17.67;14.80;;;21.80;99.90;;;;;;5113302;28;20242;-72
2023/08/12 05:32:59;;;;;;;15.30;13.37;;;21.80;99.90;;;;;;5113177;28;20632;-71
2023/08/12 05:35:25;;;;;;;16.57;12.67;;;21.80;99.90;;;;;;5112044;28;20426;-71
2023/08/12 05:37:50;;;;;;;17.10;12.67;;;21.80;99.90;;;;;;5113133;28;20243;-70
2023/08/12 05:40:16;;;;;;;14.20;12.70;;;21.80;99.90;;;;;;5094676;28;20264;-70
2023/08/12 05:42:41;;;;;;;17.93;14.83;;;21.80;99.90;;;;;;5088482;28;20218;-71
2023/08/12 05:45:07;;;;;;;15.70;12.80;;;21.60;99.90;;;;;;5105272;28;20199;-70
2023/08/12 05:47:33;;;;;;;13.63;11.93;;;21.50;99.90;;;;;;5094704;28;20173;-70
2023/08/12 05:49:59;;;;;;;15.93;13.73;;;21.50;99.90;;;;;;5094619;28;20469;-70
2023/08/12 05:52:24;;;;;;;14.63;12.20;;;21.50;99.90;;;;;;5112684;28;20192;-70
2023/08/12 05:54:50;;;;;;;13.33;11.97;;;21.50;99.90;;;;;;5112740;28;20168;-70
2023/08/12 05:57:15;;;;;;;16.30;13.40;;;21.50;99.90;;;;;;5112527;28;20161;-71
2023/08/12 05:59:41;;;;;;;14.03;11.33;;;21.40;99.90;;;;;;5089775;28;20178;-71
2023/08/12 06:02:06;;;;;;;15.60;12.60;;;21.30;99.90;;;;;;5092224;28;20565;-71
2023/08/12 06:04:32;;;;;;;14.27;9.73;;;21.20;99.90;;;;;;5092300;28;20559;-70
2023/08/12 06:06:57;;;;;;;11.90;8.80;;;21.10;99.90;;;;;;5091851;28;20185;-71
2023/08/12 06:09:23;;;;;;;11.43;9.77;;;21.20;99.90;;;;;;5092105;28;20530;-72
2023/08/12 06:11:48;;;;;;;11.53;10.10;;;21.10;99.90;;;;;;5090043;28;20181;-71
2023/08/12 06:14:14;;;;;;;10.33;8.40;;;21.20;99.90;;;;;;5086073;28;20244;-71
2023/08/12 06:16:39;;;;;;;10.87;7.83;;;21.20;99.90;;;;;;5109495;28;20164;-71
2023/08/12 06:19:05;;;;;;;10.37;7.90;;;21.20;99.90;;;;;;5112434;28;20201;-72
2023/08/12 06:21:30;;;;;;;8.50;7.17;;;21.20;99.90;;;;;;5112578;28;20181;-71
2023/08/12 06:23:56;;;;;;;9.60;7.40;;;21.00;99.90;;;;;;5112568;28;20165;-72
2023/08/12 06:26:22;;;;;;;8.93;7.30;;;21.10;99.90;;;;;;5112145;28;20197;-71
2023/08/12 06:28:47;;;;;;;6.63;6.03;;;20.90;99.90;;;;;;5103710;28;20185;-71
2023/08/12 06:31:13;;;;;;;5.30;4.80;;;20.90;99.90;;;;;;5084103;28;20563;-71
2023/08/12 06:33:38;;;;;;;5.60;5.00;;;20.90;99.90;;;;;;5091100;28;20774;-71
2023/08/12 06:36:04;;;;;;;6.17;5.57;;;20.90;99.90;;;;;;5104238;28;20589;-70
2023/08/12 06:38:30;;;;;;;3.93;3.53;;;21.10;99.90;;;;;;5112176;28;20575;-71
2023/08/12 06:40:55;;;;;;;5.73;5.23;;;21.20;99.90;;;;;;5112187;28;20180;-71
2023/08/12 06:43:21;;;;;;;4.80;4.40;;;21.30;99.90;;;;;;5112236;28;20218;-70
2023/08/12 06:45:46;;;;;;;4.50;4.10;;;21.40;99.90;;;;;;5092056;28;20178;-70
2023/08/12 06:48:12;;;;;;;5.30;4.80;;;21.70;99.90;;;;;;5095938;28;20177;-71
2023/08/12 06:50:37;;;;;;;5.73;4.03;;;22.00;99.90;;;;;;5095936;28;20631;-72
2023/08/12 06:53:03;;;;;;;5.83;4.53;;;22.30;99.90;;;;;;5077769;28;20165;-72
2023/08/12 06:55:29;;;;;;;8.53;3.70;;;22.70;99.90;;;;;;5095836;28;20237;-72
2023/08/12 06:57:54;;;;;;;4.13;3.83;;;23.10;99.90;;;;;;5096092;28;20181;-71
2023/08/12 07:00:20;;;;;;;3.50;3.20;;;23.20;99.90;;;;;;5096003;28;20172;-72
2023/08/12 07:02:45;;;;;;;3.60;3.30;;;23.50;99.90;;;;;;5088679;28;20254;-72
2023/08/12 07:05:11;;;;;;;2.97;2.77;;;23.60;99.90;;;;;;5109018;28;20204;-72
2023/08/12 07:07:36;;;;;;;4.70;3.17;;;23.70;99.90;;;;;;5115860;28;20182;-71
2023/08/12 07:10:03;;;;;;;3.43;3.13;;;23.70;99.90;;;;;;5097538;28;20189;-72
2023/08/12 07:12:28;;;;;;;6.50;3.50;;;23.60;99.90;;;;;;5115928;28;20208;-71
2023/08/12 07:14:54;;;;;;;4.53;3.50;;;23.40;99.90;;;;;;5115710;28;20434;-72
2023/08/12 07:17:19;;;;;;;4.17;3.60;;;23.30;99.90;;;;;;5108898;28;20209;-72
2023/08/12 07:19:45;;;;;;;3.30;3.07;;;23.20;99.90;;;;;;5065327;28;20174;-71
2023/08/12 07:22:10;;;;;;;3.30;2.53;;;23.10;99.90;;;;;;5100241;28;20580;-72
2023/08/12 07:24:36;;;;;;;3.40;3.10;;;22.90;99.90;;;;;;5115737;28;20169;-72
2023/08/12 07:27:01;;;;;;;3.30;3.00;;;22.80;99.90;;;;;;5115392;28;20222;-73
2023/08/12 07:29:27;;;;;;;3.23;2.60;;;22.60;99.90;;;;;;5115817;28;20193;-73
2023/08/12 07:31:53;;;;;;;3.10;2.80;;;22.50;99.90;;;;;;5097346;28;20195;-72
2023/08/12 07:34:18;;;;;;;2.37;2.13;;;22.50;99.90;;;;;;5105264;28;20181;-72
2023/08/12 07:36:44;;;;;;;3.20;2.90;;;22.40;99.90;;;;;;5095455;28;20411;-72
2023/08/12 07:39:10;;;;;;;3.10;2.67;;;22.40;99.90;;;;;;5097005;28;20168;-72
2023/08/12 07:41:35;;;;;;;2.33;2.13;;;22.50;99.90;;;;;;5115293;28;20230;-72
2023/08/12 07:44:01;;;;;;;3.73;3.07;;;22.50;99.90;;;;;;5115102;28;20618;-72
2023/08/12 07:46:28;;;;;;;3.80;2.43;;;22.60;99.90;;;;;;5107086;28;20662;-72
2023/08/12 07:48:53;;;;;;;3.00;2.80;;;22.70;99.90;;;;;;5093997;28;20272;-72
2023/08/12 07:51:19;;;;;;;7.70;2.83;;;22.90;99.90;;;;;;5094702;28;20506;-72
2023/08/12 07:53:45;;;;;;;6.93;2.07;;;23.00;99.90;;;;;;5094788;28;20169;-72
2023/08/12 07:56:10;;;;;;;2.87;2.27;;;23.10;99.90;;;;;;5094456;28;20645;-72
2023/08/12 07:58:36;;;;;;;4.53;2.20;;;23.20;99.90;;;;;;5094002;28;20162;-72
2023/08/12 08:01:01;;;;;;;2.27;1.97;;;23.60;99.90;;;;;;5093390;28;20268;-73
2023/08/12 08:03:27;;;;;;;4.10;2.53;;;23.60;99.90;;;;;;5083641;28;20168;-72
2023/08/12 08:05:52;;;;;;;2.97;1.93;;;23.70;99.90;;;;;;5114694;28;20165;-72
2023/08/12 08:08:20;;;;;;;2.17;1.90;;;23.80;99.90;;;;;;5114785;28;20177;-70
2023/08/12 08:10:45;;;;;;;1.80;1.70;;;24.00;99.90;;;;;;5114962;28;20193;-70
2023/08/12 08:13:11;;;;;;;2.03;1.90;;;24.20;99.90;;;;;;5114758;28;20448;-70
2023/08/12 08:15:37;;;;;;;2.70;1.73;;;24.40;99.90;;;;;;5114679;28;20183;-70
2023/08/12 08:18:04;;;;;;;2.00;1.80;;;24.50;99.90;;;;;;5096154;28;20232;-70
2023/08/12 08:20:30;;;;;;;3.03;1.93;;;24.30;99.90;;;;;;5102008;28;20415;-70
2023/08/12 08:22:55;;;;;;;2.67;1.50;;;24.40;99.90;;;;;;5114681;28;20767;-70
2023/08/12 08:25:21;;;;;;;1.73;1.63;;;24.40;99.90;;;;;;5114790;28;20406;-70
2023/08/12 08:27:47;;;;;;;1.90;1.70;;;24.30;99.90;;;;;;5115358;28;20183;-69
2023/08/12 08:30:13;;;;;;;2.67;1.73;;;24.20;99.90;;;;;;5114901;28;20446;-69
2023/08/12 08:32:38;;;;;;;2.47;1.97;;;24.30;99.90;;;;;;5114431;28;20157;-69
2023/08/12 08:35:04;;;;;;;2.03;1.90;;;24.30;99.90;;;;;;5092450;28;20169;-69
2023/08/12 08:37:30;;;;;;;1.80;1.60;;;24.20;99.90;;;;;;5075619;28;20505;-69
2023/08/12 08:39:55;;;;;;;3.90;2.20;;;24.20;99.90;;;;;;5093819;28;20465;-71
2023/08/12 08:42:23;;;;;;;8.90;2.30;;;24.10;99.90;;;;;;5093429;28;20200;-70
2023/08/12 08:44:53;;;;;;;1.97;1.83;;;24.00;99.90;;;;;;5075560;28;20211;-70
2023/08/12 08:47:24;;;;;;;5.63;1.97;;;24.30;99.90;;;;;;5093455;28;20395;-70
2023/08/12 08:49:50;;;;;;;2.50;2.00;;;24.70;99.90;;;;;;5093582;28;20858;-69
2023/08/12 08:52:17;;;;;;;2.30;1.80;;;25.00;99.90;;;;;;5090412;28;20455;-70
2023/08/12 08:54:42;;;;;;;2.77;1.50;;;25.50;99.90;;;;;;5093410;28;20169;-70
2023/08/12 08:57:08;;;;;;;3.87;1.57;;;26.00;99.90;;;;;;5092085;28;21198;-70
2023/08/12 08:59:34;;;;;;;2.30;2.00;;;26.70;99.90;;;;;;5110360;28;20169;-70
2023/08/12 09:02:00;;;;;;;2.20;1.60;;;27.00;99.90;;;;;;5113756;28;20425;-70
2023/08/12 09:04:27;;;;;;;2.20;1.57;;;27.20;99.90;;;;;;5113729;28;20173;-71
2023/08/12 09:06:53;;;;;;;1.70;1.50;;;27.40;99.90;;;;;;5109752;28;20181;-70
2023/08/12 09:09:20;;;;;;;2.07;1.33;;;27.90;99.90;;;;;;5088614;28;21018;-70
2023/08/12 09:11:47;;;;;;;2.40;1.87;;;28.20;99.90;;;;;;5111671;28;20430;-70
2023/08/12 09:14:13;;;;;;;3.70;2.07;;;28.30;99.90;;;;;;5113535;28;20734;-69
2023/08/12 09:16:38;;;;;;;1.57;1.47;;;28.80;99.90;;;;;;5113269;28;20402;-70
2023/08/12 09:19:04;;;;;;;2.87;1.70;;;29.20;99.90;;;;;;5113483;28;20399;-69
2023/08/12 09:21:30;;;;;;;1.60;1.40;;;29.50;99.90;;;;;;5113306;28;20550;-69
2023/08/12 09:23:56;;;;;;;4.90;1.70;;;29.80;99.90;;;;;;5105311;28;20165;-70
2023/08/12 09:26:21;;;;;;;1.60;1.40;;;29.90;99.90;;;;;;5099435;28;20603;-71
2023/08/12 09:28:48;;;;;;;3.00;1.50;;;29.70;99.90;;;;;;5113217;28;20648;-70
2023/08/12 09:31:26;;;;;;;1.73;1.63;;;29.50;99.90;;;;;;5113225;28;20230;-70
2023/08/12 09:33:52;;;;;;;2.00;1.60;;;29.20;99.90;;;;;;5113221;28;20421;-70
2023/08/12 09:36:18;;;;;;;1.87;1.67;;;28.70;99.90;;;;;;5097295;28;20426;-69
2023/08/12 09:38:45;;;;;;;2.03;1.47;;;28.60;99.90;;;;;;5100387;28;20481;-69
2023/08/12 09:41:10;;;;;;;3.07;1.50;;;29.00;99.90;;;;;;5089542;28;20454;-69
2023/08/12 09:43:45;;;;;;;1.97;1.67;;;29.60;99.90;;;;;;5092769;28;20407;-68
2023/08/12 09:46:15;;;;;;;2.23;1.53;;;29.90;99.90;;;;;;5112689;28;20164;-68
2023/08/12 09:48:40;;;;;;;2.20;2.00;;;29.90;99.90;;;;;;5094479;28;20409;-69
2023/08/12 09:51:07;;;;;;;1.90;1.50;;;29.60;99.90;;;;;;5094252;28;20447;-69
2023/08/12 09:53:33;;;;;;;1.43;1.33;;;29.90;99.90;;;;;;5109169;28;20657;-69
2023/08/12 09:56:07;;;;;;;2.40;2.10;;;30.50;99.90;;;;;;5112492;28;20761;-69
2023/08/12 09:58:36;;;;;;;1.50;1.13;;;31.00;99.90;;;;;;5112695;28;20390;-69
2023/08/12 10:01:03;;;;;;;1.37;1.23;;;31.40;99.90;;;;;;5112617;28;20411;-70
2023/08/12 10:03:30;;;;;;;1.83;1.57;;;30.90;99.90;;;;;;5112616;28;20409;-69
2023/08/12 10:05:56;;;;;;;1.37;1.27;;;30.20;99.90;;;;;;5107822;28;20403;-69
2023/08/12 10:08:22;;;;;;;3.03;1.23;;;29.80;99.90;;;;;;5087116;28;20428;-69
2023/08/12 10:10:47;;;;;;;1.73;1.13;;;29.40;99.90;;;;;;5110998;28;20196;-69
2023/08/12 10:13:14;;;;;;;1.10;0.80;;;29.20;99.90;;;;;;5112551;28;20403;-69
2023/08/12 10:15:40;;;;;;;1.23;0.97;;;28.70;99.90;;;;;;5112014;28;20161;-69
2023/08/12 10:18:07;;;;;;;1.60;1.33;;;28.20;99.90;;;;;;5112475;28;20409;-69
2023/08/12 10:20:35;;;;;;;1.30;1.20;;;27.80;99.90;;;;;;5112162;28;20545;-69
2023/08/12 10:23:02;;;;;;;1.00;0.90;;;27.60;99.90;;;;;;5103249;28;20819;-69
2023/08/12 10:25:32;;;;;;;1.10;1.00;;;27.50;99.90;;;;;;5090922;28;20431;-69
2023/08/12 10:27:58;;;;;;;1.10;0.97;;;27.60;99.90;;;;;;5103776;28;20418;-68
2023/08/12 10:30:23;;;;;;;1.10;1.00;;;27.70;99.90;;;;;;5112211;28;20446;-68
2023/08/12 10:32:49;;;;;;;1.50;1.20;;;27.80;99.90;;;;;;5112347;28;20219;-68
2023/08/12 10:35:15;;;;;;;1.20;1.10;;;27.80;99.90;;;;;;5112052;28;20161;-68
2023/08/12 10:37:40;;;;;;;1.43;1.20;;;27.60;99.90;;;;;;5112384;28;20464;-70
2023/08/12 10:40:20;;;;;;;0.97;0.80;;;27.60;99.90;;;;;;5089610;28;20180;-69
2023/08/12 10:42:47;;;;;;;1.53;1.20;;;27.30;99.90;;;;;;5101993;28;20172;-69
2023/08/12 10:45:16;;;;;;;1.87;1.10;;;27.20;99.90;;;;;;5112089;28;20437;-69
2023/08/12 10:47:43;;;;;;;1.13;1.00;;;26.90;99.90;;;;;;5094027;28;20923;-69
2023/08/12 10:50:19;;;;;;;1.20;1.03;;;26.60;99.90;;;;;;5112186;28;20443;-69
2023/08/12 10:52:46;;;;;;;1.60;1.40;;;26.20;99.90;;;;;;5112312;28;20398;-68
2023/08/12 10:55:25;;;;;;;1.67;1.23;;;25.90;99.90;;;;;;5111981;28;20490;-69
2023/08/12 10:57:53;;;;;;;2.47;0.80;;;25.70;99.90;;;;;;5089965;28;20521;-68
2023/08/12 11:00:29;;;;;;;1.00;0.90;;;25.50;99.90;;;;;;5097864;28;20402;-69
2023/08/12 11:02:56;;;;;;;2.10;1.03;;;25.40;99.90;;;;;;5092492;28;20430;-68
2023/08/12 11:05:24;;;;;;;1.33;1.00;;;25.40;99.90;;;;;;5106511;28;20426;-68
2023/08/12 11:08:01;;;;;;;1.37;1.13;;;25.30;99.90;;;;;;5111922;28;20461;-68
2023/08/12 11:10:30;;;;;;;1.30;1.10;;;25.20;99.90;;;;;;5111887;28;20450;-68
2023/08/12 11:12:57;;;;;;;1.20;1.00;;;25.10;99.90;;;;;;5112030;28;20399;-68
2023/08/12 11:15:50;;;;;;;1.27;1.17;;;25.20;99.90;;;;;;5105148;28;20427;-68
2023/08/12 11:18:21;;;;;;;1.70;1.60;;;25.20;99.90;;;;;;5075059;28;20481;-68
2023/08/12 11:20:48;;;;;;;1.97;1.37;;;25.30;99.90;;;;;;5101696;28;20434;-69
2023/08/12 11:23:14;;;;;;;1.70;1.50;;;25.60;99.90;;;;;;5111927;28;20438;-68
2023/08/12 11:25:44;;;;;;;1.97;1.40;;;25.80;99.90;;;;;;5111644;28;20442;-68
2023/08/12 11:28:10;;;;;;;1.60;1.50;;;26.10;99.90;;;;;;5111951;28;20601;-68
2023/08/12 11:30:36;;;;;;;1.73;1.40;;;26.40;99.90;;;;;;5111693;28;20489;-68
2023/08/12 11:33:02;;;;;;;2.27;1.57;;;26.60;99.90;;;;;;5096368;28;20189;-68
2023/08/12 11:35:29;;;;;;;1.37;1.27;;;26.80;99.90;;;;;;5110866;28;20394;-69
2023/08/12 11:37:56;;;;;;;1.50;1.40;;;26.90;99.90;;;;;;5115471;28;20406;-68
2023/08/12 11:40:23;;;;;;;1.77;1.23;;;26.90;99.90;;;;;;5115392;28;20496;-69
2023/08/12 11:42:50;;;;;;;2.67;1.30;;;27.10;99.90;;;;;;5115375;28;20403;-68
2023/08/12 11:45:19;;;;;;;1.67;1.47;;;27.40;99.90;;;;;;5096812;28;20923;-69
2023/08/12 11:47:47;;;;;;;2.23;1.50;;;27.80;99.90;;;;;;5113833;28;20399;-68
2023/08/12 11:50:16;;;;;;;1.60;1.50;;;27.80;99.90;;;;;;5093738;28;20455;-68
2023/08/12 11:52:41;;;;;;;1.40;1.30;;;28.10;99.90;;;;;;5112566;28;20405;-69
2023/08/12 11:55:08;;;;;;;1.43;1.33;;;28.70;99.90;;;;;;5114598;28;20399;-69
2023/08/12 11:57:34;;;;;;;2.00;1.90;;;29.30;99.90;;;;;;5115016;28;20169;-69
2023/08/12 12:00:02;;;;;;;1.40;1.30;;;29.80;99.90;;;;;;5114973;28;20475;-69
2023/08/12 12:02:28;;;;;;;2.17;1.60;;;30.50;99.90;;;;;;5096593;28;20466;-69
2023/08/12 12:04:53;;;;;;;2.00;1.67;;;31.40;99.90;;;;;;5106087;28;20478;-69
2023/08/12 12:07:21;;;;;;;11.50;10.40;;;31.70;99.90;;;;;;5094162;28;20192;-69
2023/08/12 12:09:47;;;;;;;3.90;3.60;;;31.70;99.90;;;;;;5094332;28;20185;-69
2023/08/12 12:12:12;;;;;;;2.20;2.00;;;31.70;99.90;;;;;;5094254;28;20511;-69
2023/08/12 12:14:38;;;;;;;1.60;1.50;;;33.80;99.90;;;;;;5094301;28;20190;-69
2023/08/12 12:17:13;;;;;;;2.43;1.10;;;37.30;99.90;;;;;;5094010;28;20244;-70
2023/08/12 12:19:41;;;;;;;1.70;1.60;;;40.50;80.00;;;;;;5094310;28;20222;-70
2023/08/12 12:22:07;;;;;;;2.10;2.00;;;42.80;63.10;;;;;;5085771;28;20433;-70
2023/08/12 12:24:46;;;;;;;1.67;1.40;;;43.10;52.80;;;;;;5102290;28;20389;-69
2023/08/12 12:27:12;;;;;;;1.73;1.27;;;42.30;52.70;;;;;;5114265;28;20161;-69
2023/08/12 12:29:37;;;;;;;2.33;1.50;;;40.90;52.40;;;;;;5114330;28;20812;-69
2023/08/12 12:32:03;;;;;;;1.20;1.10;;;38.90;51.50;;;;;;5114302;28;20422;-69
2023/08/12 12:34:28;;;;;;;1.57;1.30;;;36.90;54.70;;;;;;5114351;28;20184;-69